createdAt,value
2022-12-18T00:00:20.913Z,969.13
2022-12-18T00:01:20.872Z,969.15
2022-12-18T00:02:20.949Z,969.19
2022-12-18T00:03:21.019Z,969.22
2022-12-18T00:04:21.053Z,969.2
2022-12-18T00:05:20.855Z,969.26
2022-12-18T00:06:20.924Z,969.24
2022-12-18T00:07:20.848Z,969.27
2022-12-18T00:08:20.992Z,969.26
2022-12-18T00:09:20.879Z,969.31
2022-12-18T00:10:20.899Z,969.36
2022-12-18T00:11:20.888Z,969.34
2022-12-18T00:12:20.873Z,969.37
2022-12-18T00:13:20.993Z,969.35
2022-12-18T00:14:20.869Z,969.36
2022-12-18T00:15:20.858Z,969.37
2022-12-18T00:16:21.078Z,969.35
2022-12-18T00:17:20.910Z,969.39
2022-12-18T00:18:20.915Z,969.4
2022-12-18T00:19:20.878Z,969.38
2022-12-18T00:20:20.875Z,969.39
2022-12-18T00:21:20.877Z,969.43
2022-12-18T00:22:21.007Z,969.42
2022-12-18T00:23:20.881Z,969.4
2022-12-18T00:24:20.946Z,969.41
2022-12-18T00:26:20.964Z,969.48
2022-12-18T00:27:20.968Z,969.45
2022-12-18T00:29:20.909Z,969.46
2022-12-18T00:30:20.963Z,969.47
2022-12-18T00:31:20.945Z,969.49
2022-12-18T00:32:20.988Z,969.54
2022-12-18T00:33:21.060Z,969.56
2022-12-18T00:34:20.911Z,969.54
2022-12-18T00:35:20.911Z,969.58
2022-12-18T00:36:20.922Z,969.53
2022-12-18T00:37:21.029Z,969.55
2022-12-18T00:38:20.915Z,969.58
2022-12-18T00:39:21.005Z,969.59
2022-12-18T00:40:21.034Z,969.58
2022-12-18T00:41:20.925Z,969.57
2022-12-18T00:42:21.064Z,969.58
2022-12-18T00:43:20.935Z,969.53
2022-12-18T00:44:20.929Z,969.51
2022-12-18T00:45:21.081Z,969.52
2022-12-18T00:46:20.944Z,969.5
2022-12-18T00:47:20.931Z,969.48
2022-12-18T00:48:20.939Z,969.46
2022-12-18T00:49:21.050Z,969.47
2022-12-18T00:50:20.943Z,969.48
2022-12-18T00:51:21.085Z,969.5
2022-12-18T00:52:21.044Z,969.51
2022-12-18T00:53:21.013Z,969.52
2022-12-18T00:54:23.243Z,969.49
2022-12-18T00:55:21.053Z,969.48
2022-12-18T00:56:20.946Z,969.42
2022-12-18T00:57:21.106Z,969.4
2022-12-18T00:58:21.052Z,969.43
2022-12-18T01:00:21.084Z,969.47
2022-12-18T01:01:21.066Z,969.52
2022-12-18T01:02:21.304Z,969.5
2022-12-18T01:03:21.101Z,969.52
2022-12-18T01:04:21.076Z,969.57
2022-12-18T01:05:21.037Z,969.56
2022-12-18T01:06:20.984Z,969.6
2022-12-18T01:07:21.068Z,969.61
2022-12-18T01:08:21.038Z,969.63
2022-12-18T01:10:21.077Z,969.61
2022-12-18T01:11:21.149Z,969.64
2022-12-18T01:12:20.996Z,969.69
2022-12-18T01:13:21.083Z,969.66
2022-12-18T01:14:20.998Z,969.69
2022-12-18T01:15:21.000Z,969.73
2022-12-18T01:16:21.041Z,969.72
2022-12-18T01:17:21.150Z,969.7
2022-12-18T01:18:21.036Z,969.77
2022-12-18T01:19:21.080Z,969.74
2022-12-18T01:22:21.012Z,969.75
2022-12-18T01:23:21.012Z,969.72
2022-12-18T01:24:21.008Z,969.7
2022-12-18T01:25:21.085Z,969.76
2022-12-18T01:26:21.160Z,969.75
2022-12-18T01:27:21.020Z,969.76
2022-12-18T01:28:21.026Z,969.75
2022-12-18T01:29:21.028Z,969.78
2022-12-18T01:30:21.128Z,969.8
2022-12-18T01:31:21.174Z,969.81
2022-12-18T01:32:21.041Z,969.82
2022-12-18T01:33:21.144Z,969.85
2022-12-18T01:34:21.099Z,969.89
2022-12-18T01:36:21.085Z,969.9
2022-12-18T01:37:21.224Z,969.91
2022-12-18T01:39:21.161Z,969.97
2022-12-18T01:40:21.108Z,969.96
2022-12-18T01:41:21.181Z,969.97
2022-12-18T01:42:21.061Z,969.93
2022-12-18T01:43:21.220Z,969.94
2022-12-18T01:44:21.066Z,969.93
2022-12-18T01:45:21.161Z,969.96
2022-12-18T01:46:21.095Z,969.92
2022-12-18T01:47:21.067Z,969.94
2022-12-18T01:48:21.074Z,969.96
2022-12-18T01:49:21.097Z,969.95
2022-12-18T01:50:21.191Z,969.97
2022-12-18T01:51:21.164Z,969.99
2022-12-18T01:52:21.090Z,969.95
2022-12-18T01:53:21.198Z,969.93
2022-12-18T01:54:21.163Z,969.98
2022-12-18T01:55:21.085Z,970.01
2022-12-18T01:56:21.198Z,970.03
2022-12-18T01:57:21.090Z,970.01
2022-12-18T01:58:22.543Z,970.06
2022-12-18T01:59:21.203Z,970.07
2022-12-18T02:00:21.086Z,970.06
2022-12-18T02:01:21.223Z,970.07
2022-12-18T02:02:21.330Z,970.06
2022-12-18T02:04:21.250Z,970.01
2022-12-18T02:05:21.211Z,969.98
2022-12-18T02:06:21.126Z,970.01
2022-12-18T02:07:21.255Z,970
2022-12-18T02:08:21.227Z,970.02
2022-12-18T02:09:21.189Z,970.04
2022-12-18T02:10:21.123Z,969.98
2022-12-18T02:12:21.184Z,970
2022-12-18T02:14:21.233Z,970.02
2022-12-18T02:15:21.197Z,970.05
2022-12-18T02:16:21.326Z,970.06
2022-12-18T02:17:21.232Z,970.08
2022-12-18T02:18:21.202Z,970.11
2022-12-18T02:19:21.264Z,970.07
2022-12-18T02:21:21.195Z,970.03
2022-12-18T02:22:21.284Z,970
2022-12-18T02:24:22.304Z,970.01
2022-12-18T02:25:21.299Z,969.97
2022-12-18T02:27:21.306Z,970.01
2022-12-18T02:28:21.291Z,969.99
2022-12-18T02:29:21.256Z,970.01
2022-12-18T02:32:21.296Z,970.06
2022-12-18T02:33:21.336Z,970.09
2022-12-18T02:34:21.284Z,970.05
2022-12-18T02:35:21.260Z,970.08
2022-12-18T02:36:21.219Z,970.07
2022-12-18T02:37:21.281Z,970.12
2022-12-18T02:38:21.260Z,970.1
2022-12-18T02:39:21.185Z,970.09
2022-12-18T02:41:21.258Z,970.08
2022-12-18T02:42:21.203Z,970.04
2022-12-18T02:43:21.303Z,970.02
2022-12-18T02:44:21.269Z,969.98
2022-12-18T02:45:21.334Z,969.96
2022-12-18T02:46:21.365Z,969.94
2022-12-18T02:47:21.270Z,969.98
2022-12-18T02:48:21.346Z,969.99
2022-12-18T02:50:21.273Z,970.01
2022-12-18T02:51:21.229Z,970
2022-12-18T02:52:21.305Z,970.06
2022-12-18T02:54:21.342Z,970
2022-12-18T02:55:21.312Z,970.03
2022-12-18T02:56:22.339Z,970.02
2022-12-18T02:57:21.230Z,970.05
2022-12-18T02:58:21.321Z,970.01
2022-12-18T02:59:21.234Z,970.09
2022-12-18T03:00:21.242Z,970.08
2022-12-18T03:01:21.427Z,970.1
2022-12-18T03:02:21.553Z,970.04
2022-12-18T03:03:21.253Z,970.11
2022-12-18T03:04:21.325Z,970.14
2022-12-18T03:05:22.401Z,970.15
2022-12-18T03:06:21.360Z,970.17
2022-12-18T03:07:21.249Z,970.18
2022-12-18T03:08:21.403Z,970.2
2022-12-18T03:09:21.261Z,970.25
2022-12-18T03:10:21.330Z,970.16
2022-12-18T03:11:21.398Z,970.18
2022-12-18T03:12:21.372Z,970.17
2022-12-18T03:13:21.257Z,970.2
2022-12-18T03:14:21.270Z,970.22
2022-12-18T03:16:21.347Z,970.21
2022-12-18T03:17:21.404Z,970.18
2022-12-18T03:18:21.272Z,970.22
2022-12-18T03:20:22.536Z,970.23
2022-12-18T03:21:21.290Z,970.28
2022-12-18T03:23:24.375Z,970.31
2022-12-18T03:24:21.477Z,970.34
2022-12-18T03:25:21.352Z,970.35
2022-12-18T03:26:21.437Z,970.36
2022-12-18T03:27:21.394Z,970.35
2022-12-18T03:29:21.318Z,970.37
2022-12-18T03:30:21.398Z,970.32
2022-12-18T03:31:21.352Z,970.34
2022-12-18T03:32:21.431Z,970.27
2022-12-18T03:33:21.303Z,970.29
2022-12-18T03:34:21.313Z,970.3
2022-12-18T03:35:21.311Z,970.31
2022-12-18T03:36:21.401Z,970.35
2022-12-18T03:37:21.475Z,970.36
2022-12-18T03:38:21.446Z,970.37
2022-12-18T03:39:21.334Z,970.41
2022-12-18T03:41:21.386Z,970.43
2022-12-18T03:42:21.409Z,970.44
2022-12-18T03:43:23.046Z,970.46
2022-12-18T03:46:21.605Z,970.48
2022-12-18T03:47:21.461Z,970.51
2022-12-18T03:48:21.355Z,970.52
2022-12-18T03:49:21.490Z,970.5
2022-12-18T03:50:21.344Z,970.52
2022-12-18T03:51:21.415Z,970.53
2022-12-18T03:52:22.593Z,970.52
2022-12-18T03:53:21.518Z,970.46
2022-12-18T03:54:21.421Z,970.52
2022-12-18T03:55:21.502Z,970.53
2022-12-18T03:56:21.470Z,970.5
2022-12-18T03:57:22.630Z,970.51
2022-12-18T03:58:21.499Z,970.53
2022-12-18T03:59:21.462Z,970.54
2022-12-18T04:00:22.662Z,970.55
2022-12-18T04:01:21.450Z,970.57
2022-12-18T04:02:21.585Z,970.53
2022-12-18T04:03:25.398Z,970.59
2022-12-18T04:04:21.626Z,970.55
2022-12-18T04:05:21.376Z,970.61
2022-12-18T04:06:21.489Z,970.65
2022-12-18T04:07:21.509Z,970.58
2022-12-18T04:08:21.472Z,970.6
2022-12-18T04:09:22.679Z,970.64
2022-12-18T04:10:21.528Z,970.66
2022-12-18T04:11:21.493Z,970.67
2022-12-18T04:13:21.770Z,970.68
2022-12-18T04:14:21.615Z,970.7
2022-12-18T04:15:21.561Z,970.73
2022-12-18T04:17:21.491Z,970.7
2022-12-18T04:18:21.561Z,970.69
2022-12-18T04:19:21.531Z,970.7
2022-12-18T04:20:21.489Z,970.72
2022-12-18T04:21:21.569Z,970.71
2022-12-18T04:22:21.529Z,970.68
2022-12-18T04:23:21.423Z,970.72
2022-12-18T04:25:21.441Z,970.75
2022-12-18T04:26:21.607Z,970.74
2022-12-18T04:27:21.439Z,970.78
2022-12-18T04:28:21.448Z,970.77
2022-12-18T04:29:21.506Z,970.76
2022-12-18T04:30:21.575Z,970.73
2022-12-18T04:31:21.641Z,970.75
2022-12-18T04:32:21.517Z,970.78
2022-12-18T04:33:21.632Z,970.82
2022-12-18T04:35:21.615Z,970.86
2022-12-18T04:36:21.578Z,970.9
2022-12-18T04:37:21.538Z,970.96
2022-12-18T04:38:21.509Z,970.93
2022-12-18T04:39:21.582Z,970.94
2022-12-18T04:40:21.452Z,970.93
2022-12-18T04:41:21.625Z,970.94
2022-12-18T04:43:21.735Z,970.96
2022-12-18T04:44:21.493Z,970.94
2022-12-18T04:45:21.594Z,970.96
2022-12-18T04:46:21.581Z,970.97
2022-12-18T04:47:21.633Z,970.98
2022-12-18T04:48:21.598Z,970.99
2022-12-18T04:49:21.564Z,971.01
2022-12-18T04:51:26.251Z,971
2022-12-18T04:54:21.771Z,971
2022-12-18T04:55:21.576Z,970.99
2022-12-18T04:56:21.649Z,970.96
2022-12-18T04:57:21.509Z,971.01
2022-12-18T04:58:21.582Z,970.96
2022-12-18T04:59:21.646Z,971.02
2022-12-18T05:00:21.616Z,971.03
2022-12-18T05:01:21.750Z,970.99
2022-12-18T05:02:21.771Z,970.96
2022-12-18T05:03:21.649Z,970.99
2022-12-18T05:04:21.517Z,971
2022-12-18T05:05:21.653Z,970.99
2022-12-18T05:06:21.650Z,971
2022-12-18T05:07:21.583Z,970.98
2022-12-18T05:08:21.652Z,970.96
2022-12-18T05:09:21.624Z,970.93
2022-12-18T05:10:21.592Z,970.91
2022-12-18T05:11:21.544Z,970.92
2022-12-18T05:12:21.633Z,970.91
2022-12-18T05:13:21.703Z,970.93
2022-12-18T05:14:21.544Z,970.9
2022-12-18T05:15:21.542Z,970.86
2022-12-18T05:17:21.688Z,970.83
2022-12-18T05:18:21.662Z,970.81
2022-12-18T05:20:21.563Z,970.82
2022-12-18T05:21:21.651Z,970.83
2022-12-18T05:24:21.582Z,970.86
2022-12-18T05:26:21.569Z,970.92
2022-12-18T05:27:21.663Z,970.91
2022-12-18T05:28:21.584Z,970.94
2022-12-18T05:29:21.687Z,970.92
2022-12-18T05:30:21.650Z,970.95
2022-12-18T05:31:21.655Z,970.98
2022-12-18T05:32:21.689Z,971
2022-12-18T05:33:21.654Z,971.04
2022-12-18T05:34:21.721Z,971.05
2022-12-18T05:35:21.715Z,971.04
2022-12-18T05:36:21.589Z,971.07
2022-12-18T05:37:21.723Z,971.12
2022-12-18T05:38:21.710Z,971.1
2022-12-18T05:39:21.689Z,971.14
2022-12-18T05:40:21.735Z,971.12
2022-12-18T05:41:21.696Z,971.13
2022-12-18T05:42:21.598Z,971.16
2022-12-18T05:43:21.806Z,971.14
2022-12-18T05:44:21.697Z,971.16
2022-12-18T05:46:21.872Z,971.14
2022-12-18T05:47:21.741Z,971.13
2022-12-18T05:48:21.639Z,971.11
2022-12-18T05:49:21.627Z,971.07
2022-12-18T05:50:21.719Z,971.09
2022-12-18T05:51:21.639Z,971.08
2022-12-18T05:53:21.732Z,971.11
2022-12-18T05:54:21.790Z,971.06
2022-12-18T05:55:21.644Z,971.1
2022-12-18T05:56:21.669Z,971.08
2022-12-18T05:57:22.721Z,971.12
2022-12-18T05:58:21.759Z,971.06
2022-12-18T05:59:21.725Z,971.04
2022-12-18T06:00:21.797Z,971.1
2022-12-18T06:01:21.814Z,971.06
2022-12-18T06:02:21.733Z,971.07
2022-12-18T06:03:21.915Z,971.03
2022-12-18T06:04:21.780Z,971.01
2022-12-18T06:05:21.726Z,971.03
2022-12-18T06:06:21.799Z,971.01
2022-12-18T06:07:21.761Z,970.99
2022-12-18T06:08:21.672Z,971.02
2022-12-18T06:09:21.801Z,971.01
2022-12-18T06:10:21.772Z,970.96
2022-12-18T06:11:21.845Z,971.06
2022-12-18T06:12:21.802Z,971.09
2022-12-18T06:13:21.680Z,971.13
2022-12-18T06:14:21.735Z,971.14
2022-12-18T06:17:21.846Z,971.12
2022-12-18T06:18:21.729Z,971.16
2022-12-18T06:19:21.787Z,971.14
2022-12-18T06:20:21.710Z,971.19
2022-12-18T06:22:21.791Z,971.16
2022-12-18T06:23:21.856Z,971.19
2022-12-18T06:24:21.711Z,971.26
2022-12-18T06:25:21.791Z,971.28
2022-12-18T06:26:26.239Z,971.35
2022-12-18T06:27:21.868Z,971.32
2022-12-18T06:28:21.809Z,971.35
2022-12-18T06:29:21.888Z,971.33
2022-12-18T06:30:21.838Z,971.34
2022-12-18T06:31:21.863Z,971.33
2022-12-18T06:33:21.730Z,971.35
2022-12-18T06:34:21.814Z,971.37
2022-12-18T06:35:21.874Z,971.39
2022-12-18T06:36:21.841Z,971.37
2022-12-18T06:37:21.810Z,971.35
2022-12-18T06:38:21.881Z,971.36
2022-12-18T06:39:21.843Z,971.35
2022-12-18T06:40:21.799Z,971.26
2022-12-18T06:42:21.945Z,971.27
2022-12-18T06:43:21.826Z,971.25
2022-12-18T06:44:22.919Z,971.31
2022-12-18T06:45:21.854Z,971.34
2022-12-18T06:46:21.857Z,971.3
2022-12-18T06:47:22.950Z,971.34
2022-12-18T06:48:21.852Z,971.32
2022-12-18T06:50:21.892Z,971.33
2022-12-18T06:51:21.854Z,971.37
2022-12-18T06:52:21.830Z,971.35
2022-12-18T06:53:21.898Z,971.4
2022-12-18T06:54:21.768Z,971.39
2022-12-18T06:55:21.940Z,971.44
2022-12-18T06:56:21.894Z,971.46
2022-12-18T06:57:21.780Z,971.47
2022-12-18T06:58:21.774Z,971.5
2022-12-18T06:59:21.787Z,971.55
2022-12-18T07:00:21.875Z,971.58
2022-12-18T07:01:22.026Z,971.64
2022-12-18T07:02:21.906Z,971.65
2022-12-18T07:03:21.876Z,971.73
2022-12-18T07:04:21.944Z,971.72
2022-12-18T07:05:21.900Z,971.73
2022-12-18T07:06:21.873Z,971.75
2022-12-18T07:08:22.024Z,971.76
2022-12-18T07:09:21.909Z,971.72
2022-12-18T07:10:23.048Z,971.75
2022-12-18T07:11:21.809Z,971.77
2022-12-18T07:12:21.889Z,971.8
2022-12-18T07:13:21.950Z,971.78
2022-12-18T07:14:21.920Z,971.84
2022-12-18T07:15:21.824Z,971.8
2022-12-18T07:16:25.072Z,971.81
2022-12-18T07:17:22.080Z,971.8
2022-12-18T07:18:21.886Z,971.79
2022-12-18T07:19:21.832Z,971.82
2022-12-18T07:20:21.935Z,971.83
2022-12-18T07:21:21.898Z,971.81
2022-12-18T07:23:21.930Z,971.84
2022-12-18T07:24:21.898Z,971.87
2022-12-18T07:25:21.842Z,971.91
2022-12-18T07:26:21.950Z,971.89
2022-12-18T07:27:22.019Z,971.9
2022-12-18T07:29:22.035Z,971.92
2022-12-18T07:30:21.873Z,971.95
2022-12-18T07:31:22.202Z,971.97
2022-12-18T07:32:21.948Z,971.96
2022-12-18T07:33:21.940Z,972
2022-12-18T07:34:21.985Z,971.99
2022-12-18T07:35:24.876Z,972.01
2022-12-18T07:36:21.860Z,972
2022-12-18T07:37:21.994Z,972.02
2022-12-18T07:38:21.960Z,972.05
2022-12-18T07:39:22.036Z,972.08
2022-12-18T07:40:21.880Z,972.06
2022-12-18T07:41:21.871Z,972.04
2022-12-18T07:42:21.893Z,972.07
2022-12-18T07:44:21.979Z,972.04
2022-12-18T07:45:23.216Z,972.08
2022-12-18T07:47:21.968Z,972.04
2022-12-18T07:50:21.981Z,972.02
2022-12-18T07:53:22.026Z,972.04
2022-12-18T07:55:22.063Z,972.06
2022-12-18T07:56:28.040Z,972.01
2022-12-18T07:57:48.697Z,972.04
2022-12-18T07:58:22.188Z,972.08
2022-12-18T08:00:21.930Z,972.12
2022-12-18T08:02:22.226Z,972.13
2022-12-18T08:03:22.132Z,972.14
2022-12-18T08:04:22.028Z,972.12
2022-12-18T08:05:21.937Z,972.1
2022-12-18T08:06:22.641Z,972.08
2022-12-18T08:07:22.012Z,972.1
2022-12-18T08:08:22.084Z,972.13
2022-12-18T08:09:21.945Z,972.15
2022-12-18T08:11:22.169Z,972.14
2022-12-18T08:12:22.072Z,972.18
2022-12-18T08:13:21.959Z,972.17
2022-12-18T08:14:22.103Z,972.16
2022-12-18T08:15:21.968Z,972.22
2022-12-18T08:16:22.140Z,972.23
2022-12-18T08:18:21.979Z,972.21
2022-12-18T08:19:22.035Z,972.23
2022-12-18T08:20:23.388Z,972.25
2022-12-18T08:21:22.295Z,972.29
2022-12-18T08:22:22.046Z,972.26
2022-12-18T08:23:22.116Z,972.24
2022-12-18T08:24:21.975Z,972.25
2022-12-18T08:25:22.042Z,972.31
2022-12-18T08:26:22.116Z,972.27
2022-12-18T08:27:29.168Z,972.29
2022-12-18T08:29:22.173Z,972.35
2022-12-18T08:30:22.085Z,972.36
2022-12-18T08:31:22.216Z,972.37
2022-12-18T08:32:22.168Z,972.39
2022-12-18T08:33:22.132Z,972.36
2022-12-18T08:34:22.062Z,972.4
2022-12-18T08:36:22.016Z,972.41
2022-12-18T08:37:22.054Z,972.42
2022-12-18T08:38:22.042Z,972.43
2022-12-18T08:39:22.099Z,972.39
2022-12-18T08:40:22.020Z,972.4
2022-12-18T08:41:22.141Z,972.35
2022-12-18T08:42:22.015Z,972.4
2022-12-18T08:43:22.181Z,972.35
2022-12-18T08:44:22.153Z,972.39
2022-12-18T08:45:22.023Z,972.42
2022-12-18T08:46:22.156Z,972.37
2022-12-18T08:48:22.444Z,972.36
2022-12-18T08:49:22.200Z,972.41
2022-12-18T08:50:22.158Z,972.38
2022-12-18T08:51:22.113Z,972.42
2022-12-18T08:52:22.187Z,972.4
2022-12-18T08:53:22.155Z,972.43
2022-12-18T08:54:22.123Z,972.42
2022-12-18T08:55:22.037Z,972.44
2022-12-18T08:56:22.050Z,972.39
2022-12-18T08:58:22.050Z,972.4
2022-12-18T08:59:22.065Z,972.39
2022-12-18T09:00:22.126Z,972.37
2022-12-18T09:01:23.169Z,972.39
2022-12-18T09:03:22.266Z,972.34
2022-12-18T09:04:22.205Z,972.32
2022-12-18T09:05:22.071Z,972.28
2022-12-18T09:06:22.061Z,972.29
2022-12-18T09:07:22.063Z,972.26
2022-12-18T09:09:22.106Z,972.21
2022-12-18T09:10:22.196Z,972.13
2022-12-18T09:11:22.078Z,972.18
2022-12-18T09:12:23.290Z,972.17
2022-12-18T09:13:22.098Z,972.15
2022-12-18T09:14:22.091Z,972.14
2022-12-18T09:16:25.004Z,972.13
2022-12-18T09:17:22.332Z,972.15
2022-12-18T09:20:22.143Z,972.14
2022-12-18T09:22:22.130Z,972.11
2022-12-18T09:23:22.112Z,972.12
2022-12-18T09:24:22.111Z,972.14
2022-12-18T09:25:22.130Z,972.1
2022-12-18T09:26:22.106Z,972.08
2022-12-18T09:27:22.602Z,972.07
2022-12-18T09:28:22.124Z,972.06
2022-12-18T09:31:22.282Z,972.1
2022-12-18T09:33:22.360Z,972.11
2022-12-18T09:34:22.153Z,972.13
2022-12-18T09:35:22.128Z,972.16
2022-12-18T09:36:22.280Z,972.14
2022-12-18T09:37:22.156Z,972.12
2022-12-18T09:38:22.200Z,972.13
2022-12-18T09:40:22.200Z,972.12
2022-12-18T09:41:22.149Z,972.14
2022-12-18T09:42:22.168Z,972.12
2022-12-18T09:43:22.156Z,972.16
2022-12-18T09:44:22.225Z,972.18
2022-12-18T09:46:22.289Z,972.17
2022-12-18T09:47:22.336Z,972.16
2022-12-18T09:48:22.280Z,972.15
2022-12-18T09:49:22.166Z,972.16
2022-12-18T09:50:22.264Z,972.2
2022-12-18T09:51:22.297Z,972.25
2022-12-18T09:52:22.264Z,972.23
2022-12-18T09:53:22.229Z,972.26
2022-12-18T09:54:22.291Z,972.24
2022-12-18T09:55:22.256Z,972.23
2022-12-18T09:57:22.318Z,972.24
2022-12-18T09:58:22.183Z,972.21
2022-12-18T09:59:22.207Z,972.23
2022-12-18T10:00:22.395Z,972.2
2022-12-18T10:01:22.396Z,972.19
2022-12-18T10:02:22.423Z,972.16
2022-12-18T10:03:22.299Z,972.2
2022-12-18T10:04:22.280Z,972.18
2022-12-18T10:05:22.341Z,972.19
2022-12-18T10:07:22.277Z,972.2
2022-12-18T10:08:22.343Z,972.18
2022-12-18T10:09:22.308Z,972.17
2022-12-18T10:11:23.383Z,972.19
2022-12-18T10:12:22.311Z,972.18
2022-12-18T10:13:22.716Z,972.25
2022-12-18T10:14:23.605Z,972.28
2022-12-18T10:15:22.318Z,972.25
2022-12-18T10:16:22.445Z,972.3
2022-12-18T10:17:22.232Z,972.25
2022-12-18T10:18:22.436Z,972.29
2022-12-18T10:19:23.420Z,972.32
2022-12-18T10:21:22.435Z,972.28
2022-12-18T10:23:22.482Z,972.23
2022-12-18T10:25:23.469Z,972.21
2022-12-18T10:26:22.373Z,972.24
2022-12-18T10:28:22.498Z,972.2
2022-12-18T10:29:22.383Z,972.22
2022-12-18T10:32:22.448Z,972.27
2022-12-18T10:33:22.362Z,972.23
2022-12-18T10:34:22.408Z,972.24
2022-12-18T10:36:22.405Z,972.28
2022-12-18T10:37:22.417Z,972.27
2022-12-18T10:38:22.407Z,972.33
2022-12-18T10:39:22.358Z,972.31
2022-12-18T10:40:22.850Z,972.32
2022-12-18T10:41:22.396Z,972.34
2022-12-18T10:42:22.353Z,972.35
2022-12-18T10:45:22.349Z,972.37
2022-12-18T10:46:22.483Z,972.33
2022-12-18T10:48:22.382Z,972.34
2022-12-18T10:49:22.312Z,972.32
2022-12-18T10:50:22.403Z,972.3
2022-12-18T10:51:22.396Z,972.29
2022-12-18T10:52:22.451Z,972.35
2022-12-18T10:53:22.401Z,972.3
2022-12-18T10:54:22.458Z,972.34
2022-12-18T10:55:23.237Z,972.33
2022-12-18T10:56:22.409Z,972.32
2022-12-18T10:57:22.321Z,972.36
2022-12-18T10:58:26.546Z,972.35
2022-12-18T10:59:22.552Z,972.38
2022-12-18T11:00:22.471Z,972.36
2022-12-18T11:01:22.387Z,972.35
2022-12-18T11:02:22.570Z,972.42
2022-12-18T11:03:22.525Z,972.37
2022-12-18T11:04:22.441Z,972.42
2022-12-18T11:05:22.445Z,972.41
2022-12-18T11:07:22.584Z,972.39
2022-12-18T11:08:22.342Z,972.4
2022-12-18T11:09:22.504Z,972.34
2022-12-18T11:10:22.461Z,972.31
2022-12-18T11:11:22.451Z,972.33
2022-12-18T11:12:22.357Z,972.31
2022-12-18T11:13:22.467Z,972.28
2022-12-18T11:14:22.434Z,972.32
2022-12-18T11:17:26.609Z,972.3
2022-12-18T11:18:22.415Z,972.22
2022-12-18T11:19:22.462Z,972.24
2022-12-18T11:20:22.429Z,972.26
2022-12-18T11:21:22.508Z,972.21
2022-12-18T11:22:22.384Z,972.14
2022-12-18T11:23:22.445Z,972.15
2022-12-18T11:24:22.373Z,972.1
2022-12-18T11:25:35.560Z,972.11
2022-12-18T11:26:22.712Z,972.07
2022-12-18T11:27:22.526Z,972.04
2022-12-18T11:29:22.567Z,972.03
2022-12-18T11:30:22.400Z,971.99
2022-12-18T11:32:22.560Z,971.94
2022-12-18T11:35:22.510Z,971.95
2022-12-18T11:36:22.545Z,971.96
2022-12-18T11:37:22.565Z,971.92
2022-12-18T11:38:22.568Z,971.95
2022-12-18T11:39:22.527Z,971.94
2022-12-18T11:40:22.424Z,971.92
2022-12-18T11:41:22.563Z,971.91
2022-12-18T11:42:22.542Z,971.89
2022-12-18T11:43:22.459Z,971.88
2022-12-18T11:44:22.432Z,971.91
2022-12-18T11:45:22.471Z,971.89
2022-12-18T11:46:22.457Z,971.8
2022-12-18T11:47:22.494Z,971.77
2022-12-18T11:48:22.446Z,971.76
2022-12-18T11:49:22.434Z,971.7
2022-12-18T11:50:22.575Z,971.72
2022-12-18T11:51:26.276Z,971.7
2022-12-18T11:52:22.456Z,971.73
2022-12-18T11:53:22.538Z,971.74
2022-12-18T11:54:22.612Z,971.71
2022-12-18T11:58:25.200Z,971.69
2022-12-18T12:00:22.759Z,971.7
2022-12-18T12:01:22.728Z,971.66
2022-12-18T12:02:22.740Z,971.67
2022-12-18T12:03:22.563Z,971.69
2022-12-18T12:04:22.844Z,971.72
2022-12-18T12:05:22.638Z,971.77
2022-12-18T12:06:22.665Z,971.8
2022-12-18T12:07:22.660Z,971.79
2022-12-18T12:08:22.605Z,971.8
2022-12-18T12:09:22.602Z,971.83
2022-12-18T12:10:22.609Z,971.81
2022-12-18T12:11:22.702Z,971.78
2022-12-18T12:12:23.341Z,971.79
2022-12-18T12:13:22.887Z,971.78
2022-12-18T12:14:22.712Z,971.84
2022-12-18T12:16:23.537Z,971.85
2022-12-18T12:17:22.660Z,971.88
2022-12-18T12:18:23.342Z,971.87
2022-12-18T12:20:22.570Z,971.82
2022-12-18T12:21:22.729Z,971.81
2022-12-18T12:22:22.783Z,971.76
2022-12-18T12:23:26.128Z,971.73
2022-12-18T12:24:23.002Z,971.77
2022-12-18T12:25:22.745Z,971.74
2022-12-18T12:26:22.742Z,971.7
2022-12-18T12:27:22.729Z,971.75
2022-12-18T12:28:22.611Z,971.74
2022-12-18T12:30:22.698Z,971.72
2022-12-18T12:31:22.651Z,971.68
2022-12-18T12:32:22.693Z,971.65
2022-12-18T12:33:22.765Z,971.62
2022-12-18T12:35:22.606Z,971.61
2022-12-18T12:36:22.660Z,971.59
2022-12-18T12:38:23.278Z,971.58
2022-12-18T12:40:50.062Z,971.57
2022-12-18T12:41:22.981Z,971.53
2022-12-18T12:42:23.052Z,971.55
2022-12-18T12:45:22.783Z,971.59
2022-12-18T12:46:22.902Z,971.57
2022-12-18T12:47:22.867Z,971.56
2022-12-18T12:48:22.724Z,971.58
2022-12-18T12:49:22.971Z,971.57
2022-12-18T12:50:22.699Z,971.54
2022-12-18T12:51:22.838Z,971.53
2022-12-18T12:52:22.745Z,971.5
2022-12-18T12:53:22.772Z,971.53
2022-12-18T12:54:22.716Z,971.49
2022-12-18T12:55:22.725Z,971.45
2022-12-18T12:56:22.800Z,971.43
2022-12-18T12:57:23.818Z,971.39
2022-12-18T13:00:23.167Z,971.32
2022-12-18T13:01:23.643Z,971.29
2022-12-18T13:02:22.923Z,971.3
2022-12-18T13:03:23.251Z,971.34
2022-12-18T13:07:22.956Z,971.4
2022-12-18T13:09:22.845Z,971.39
2022-12-18T13:10:23.290Z,971.3
2022-12-18T13:11:24.130Z,971.39
2022-12-18T13:13:23.639Z,971.36
2022-12-18T13:14:23.232Z,971.38
2022-12-18T13:16:23.485Z,971.4
2022-12-18T13:18:23.312Z,971.46
2022-12-18T13:19:22.686Z,971.47
2022-12-18T13:21:23.398Z,971.48
2022-12-18T13:22:23.203Z,971.47
2022-12-18T13:23:23.674Z,971.46
2022-12-18T13:24:23.300Z,971.48
2022-12-18T13:25:22.800Z,971.45
2022-12-18T13:26:28.271Z,971.48
2022-12-18T13:28:23.183Z,971.49
2022-12-18T13:29:24.010Z,971.51
2022-12-18T13:30:22.921Z,971.52
2022-12-18T13:31:22.689Z,971.51
2022-12-18T13:32:22.784Z,971.5
2022-12-18T13:33:23.635Z,971.52
2022-12-18T13:34:27.130Z,971.5
2022-12-18T13:36:22.966Z,971.51
2022-12-18T13:37:22.838Z,971.5
2022-12-18T13:38:22.755Z,971.46
2022-12-18T13:39:27.647Z,971.45
2022-12-18T13:40:23.372Z,971.49
2022-12-18T13:41:23.216Z,971.47
2022-12-18T13:43:22.864Z,971.55
2022-12-18T13:44:22.964Z,971.5
2022-12-18T13:45:22.860Z,971.53
2022-12-18T13:47:23.053Z,971.48
2022-12-18T13:50:22.938Z,971.47
2022-12-18T13:51:22.949Z,971.45
2022-12-18T13:54:22.925Z,971.43
2022-12-18T13:55:22.949Z,971.39
2022-12-18T13:56:22.943Z,971.38
2022-12-18T13:59:23.070Z,971.42
2022-12-18T14:00:23.107Z,971.49
2022-12-18T14:02:23.532Z,971.54
2022-12-18T14:04:23.148Z,971.51
2022-12-18T14:05:23.416Z,971.49
2022-12-18T14:06:22.931Z,971.44
2022-12-18T14:07:22.903Z,971.47
2022-12-18T14:08:23.315Z,971.44
2022-12-18T14:09:22.913Z,971.45
2022-12-18T14:10:42.443Z,971.47
2022-12-18T14:12:23.162Z,971.51
2022-12-18T14:13:23.536Z,971.5
2022-12-18T14:14:24.904Z,971.55
2022-12-18T14:15:23.327Z,971.49
2022-12-18T14:16:23.063Z,971.52
2022-12-18T14:18:22.998Z,971.54
2022-12-18T14:19:22.891Z,971.53
2022-12-18T14:20:22.932Z,971.5
2022-12-18T14:21:22.886Z,971.48
2022-12-18T14:22:22.892Z,971.55
2022-12-18T14:23:23.010Z,971.5
2022-12-18T14:24:24.339Z,971.51
2022-12-18T14:25:23.193Z,971.53
2022-12-18T14:26:23.314Z,971.54
2022-12-18T14:27:23.161Z,971.59
2022-12-18T14:28:23.539Z,971.56
2022-12-18T14:29:22.795Z,971.58
2022-12-18T14:31:23.178Z,971.6
2022-12-18T14:32:22.913Z,971.56
2022-12-18T14:33:23.046Z,971.57
2022-12-18T14:35:23.120Z,971.55
2022-12-18T14:38:23.115Z,971.52
2022-12-18T14:39:23.018Z,971.51
2022-12-18T14:42:23.622Z,971.51
2022-12-18T14:44:23.043Z,971.49
2022-12-18T14:45:25.013Z,971.5
2022-12-18T14:46:23.083Z,971.53
2022-12-18T14:47:23.254Z,971.52
2022-12-18T14:48:23.290Z,971.48
2022-12-18T14:49:22.921Z,971.5
2022-12-18T14:50:22.957Z,971.52
2022-12-18T14:51:23.113Z,971.51